Cyril, Oklahoma
Current Conditions -  °F | °C
As of 6:35 PM on Tuesday 25 Nov 2014 (Local Time) from KCHK Reporting Station
Clear Clear  
Wind Chill:   Ceiling: Unl
Heat Index:   Visibility: 10mi
Dew Point:   Wind: 8mph
Humidity: 57%   Direction: 180°S
Pressure: 30.09"   Gusts: NA
Location:  34.9°N, 98.2°W
Report Text: KCHK 260035Z AUTO 18007KT 10SM CLR 09/01 A3009 RMK AO2
Loading
Personal Weather Stations






























Interactive Weather Map New forecast layout! Learn more

10-Day Weather Forecast

Advertisements
Track Severe Weather on mobile